createdAt,value
2017-07-10T00:01:36.550Z,100931.97
2017-07-10T00:04:05.271Z,100937.09
2017-07-10T00:06:33.628Z,100937.71
2017-07-10T00:09:01.976Z,100934.66
2017-07-10T00:11:30.804Z,100931.28
2017-07-10T00:13:59.125Z,100926.34
2017-07-10T00:16:27.458Z,100934.27
2017-07-10T00:18:56.198Z,100929.14
2017-07-10T00:21:24.519Z,100929.45
2017-07-10T00:23:52.854Z,100939.50
2017-07-10T00:26:21.608Z,100926.12
2017-07-10T00:28:49.941Z,100925.89
2017-07-10T00:31:18.287Z,100936.05
2017-07-10T00:33:46.934Z,100930.05
2017-07-10T00:36:15.300Z,100922.16
2017-07-10T00:38:43.640Z,100924.19
2017-07-10T00:41:12.576Z,100924.15
2017-07-10T00:43:40.901Z,100919.00
2017-07-10T00:46:09.239Z,100916.45
2017-07-10T00:48:38.019Z,100912.59
2017-07-10T00:51:06.369Z,100911.83
2017-07-10T00:53:34.688Z,100917.14
2017-07-10T00:56:04.307Z,100905.75
2017-07-10T00:58:32.642Z,100909.61
2017-07-10T01:01:01.375Z,100904.44
2017-07-10T01:03:30.175Z,100902.14
2017-07-10T01:05:58.514Z,100901.64
2017-07-10T01:08:26.851Z,100901.85
2017-07-10T01:10:56.022Z,100898.02
2017-07-10T01:13:24.372Z,100897.90
2017-07-10T01:15:52.718Z,100901.69
2017-07-10T01:18:21.492Z,100902.31
2017-07-10T01:20:49.834Z,100899.22
2017-07-10T01:23:18.192Z,100898.77
2017-07-10T01:25:48.584Z,100893.81
2017-07-10T01:28:17.281Z,100891.05
2017-07-10T01:30:45.601Z,100885.63
2017-07-10T01:33:15.395Z,100882.48
2017-07-10T01:35:43.748Z,100879.84
2017-07-10T01:38:12.068Z,100884.88
2017-07-10T01:40:40.701Z,100877.91
2017-07-10T01:43:09.033Z,100878.20
2017-07-10T01:45:37.363Z,100875.73
2017-07-10T01:48:05.987Z,100875.34
2017-07-10T01:50:34.393Z,100869.11
2017-07-10T01:53:02.737Z,100875.33
2017-07-10T01:55:31.725Z,100868.18
2017-07-10T01:58:00.102Z,100868.96
2017-07-10T02:00:28.440Z,100863.63
2017-07-10T02:02:57.199Z,100862.70
2017-07-10T02:05:25.536Z,100856.45
2017-07-10T02:07:53.858Z,100851.98
2017-07-10T02:10:23.258Z,100842.39
2017-07-10T02:12:51.583Z,100837.11
2017-07-10T02:15:19.903Z,100839.38
2017-07-10T02:17:49.602Z,100848.00
2017-07-10T02:20:17.951Z,100841.02
2017-07-10T02:22:46.282Z,100830.31
2017-07-10T02:25:14.928Z,100839.61
2017-07-10T02:27:43.263Z,100834.91
2017-07-10T02:30:11.596Z,100835.09
2017-07-10T02:32:40.517Z,100833.91
2017-07-10T02:35:08.861Z,100827.99
2017-07-10T02:37:37.197Z,100833.30
2017-07-10T02:40:05.930Z,100828.33
2017-07-10T02:42:34.259Z,100829.06
2017-07-10T02:45:02.595Z,100828.24
2017-07-10T02:47:31.511Z,100833.21
2017-07-10T02:49:59.867Z,100832.56
2017-07-10T02:52:28.227Z,100828.23
2017-07-10T02:54:57.164Z,100826.73
2017-07-10T02:57:25.498Z,100837.02
2017-07-10T02:59:53.845Z,100837.12
2017-07-10T03:02:22.525Z,100836.68
2017-07-10T03:04:50.863Z,100835.75
2017-07-10T03:07:19.200Z,100824.28
2017-07-10T03:09:47.883Z,100824.42
2017-07-10T03:12:16.213Z,100831.19
2017-07-10T03:14:44.559Z,100821.01
2017-07-10T03:17:13.211Z,100817.75
2017-07-10T03:19:41.549Z,100815.27
2017-07-10T03:22:09.888Z,100813.48
2017-07-10T03:24:38.873Z,100806.33
2017-07-10T03:27:07.923Z,100819.45
2017-07-10T03:29:37.038Z,100822.41
2017-07-10T03:32:05.825Z,100814.43
2017-07-10T03:34:34.175Z,100814.30
2017-07-10T03:37:02.518Z,100821.59
2017-07-10T03:39:31.267Z,100823.33
2017-07-10T03:41:59.621Z,100824.36
2017-07-10T03:44:27.963Z,100823.52
2017-07-10T03:46:56.921Z,100824.14
2017-07-10T03:49:25.259Z,100832.42
2017-07-10T03:51:53.601Z,100826.47
2017-07-10T03:54:22.376Z,100818.84
2017-07-10T03:56:50.698Z,100815.25
2017-07-10T03:59:19.039Z,100819.17
2017-07-10T04:01:47.655Z,100814.80
2017-07-10T04:04:15.993Z,100806.09
2017-07-10T04:06:44.337Z,100812.22
2017-07-10T04:09:13.244Z,100812.75
2017-07-10T04:11:41.605Z,100813.58
2017-07-10T04:14:09.985Z,100805.78
2017-07-10T04:16:38.735Z,100808.70
2017-07-10T04:19:07.094Z,100813.02
2017-07-10T04:21:35.433Z,100809.76
2017-07-10T04:24:04.335Z,100802.22
2017-07-10T04:26:32.681Z,100794.02
2017-07-10T04:29:01.007Z,100805.78
2017-07-10T04:31:29.781Z,100802.25
2017-07-10T04:33:58.110Z,100797.03
2017-07-10T04:36:26.456Z,100798.25
2017-07-10T04:38:55.985Z,100795.73
2017-07-10T04:41:24.331Z,100791.03
2017-07-10T04:43:52.713Z,100788.12
2017-07-10T04:46:22.176Z,100783.69
2017-07-10T04:48:50.549Z,100778.84
2017-07-10T04:51:19.000Z,100776.20
2017-07-10T04:53:48.196Z,100769.02
2017-07-10T04:56:16.569Z,100763.44
2017-07-10T04:58:44.900Z,100758.31
2017-07-10T05:01:13.589Z,100754.91
2017-07-10T05:03:42.003Z,100756.75
2017-07-10T05:06:11.182Z,100754.49
2017-07-10T05:08:40.080Z,100753.05
2017-07-10T05:11:08.549Z,100754.16
2017-07-10T05:13:36.938Z,100760.99
2017-07-10T05:16:06.805Z,100745.74
2017-07-10T05:18:35.188Z,100752.43
2017-07-10T05:21:03.601Z,100762.94
2017-07-10T05:23:32.493Z,100756.25
2017-07-10T05:26:00.959Z,100750.75
2017-07-10T05:28:29.345Z,100749.33
2017-07-10T05:30:58.004Z,100754.41
2017-07-10T05:33:26.399Z,100756.67
2017-07-10T05:35:54.807Z,100755.95
2017-07-10T05:38:23.619Z,100753.22
2017-07-10T05:40:52.045Z,100745.59
2017-07-10T05:43:20.456Z,100743.75
2017-07-10T05:45:49.084Z,100749.78
2017-07-10T05:48:17.462Z,100750.52
2017-07-10T05:50:45.834Z,100743.64
2017-07-10T05:53:14.548Z,100752.93
2017-07-10T05:55:43.056Z,100745.97
2017-07-10T05:58:11.396Z,100755.41
2017-07-10T06:00:40.335Z,100756.44
2017-07-10T06:03:08.690Z,100752.31
2017-07-10T06:05:37.063Z,100747.88
2017-07-10T06:08:05.688Z,100759.42
2017-07-10T06:10:34.129Z,100757.52
2017-07-10T06:13:02.530Z,100762.41
2017-07-10T06:15:31.372Z,100750.79
2017-07-10T06:17:59.732Z,100748.91
2017-07-10T06:20:28.877Z,100755.53
2017-07-10T06:22:57.865Z,100758.05
2017-07-10T06:25:26.206Z,100762.56
2017-07-10T06:27:54.553Z,100748.23
2017-07-10T06:30:23.490Z,100744.17
2017-07-10T06:32:51.817Z,100752.39
2017-07-10T06:35:20.159Z,100758.01
2017-07-10T06:37:48.910Z,100755.44
2017-07-10T06:40:17.245Z,100747.73
2017-07-10T06:42:45.575Z,100752.88
2017-07-10T06:45:15.290Z,100750.59
2017-07-10T06:47:44.398Z,100744.97
2017-07-10T06:50:12.736Z,100744.85
2017-07-10T06:52:41.439Z,100748.02
2017-07-10T06:55:09.785Z,100743.87
2017-07-10T06:57:38.141Z,100745.66
2017-07-10T07:00:06.907Z,100752.08
2017-07-10T07:02:35.255Z,100740.54
2017-07-10T07:05:04.375Z,100739.63
2017-07-10T07:07:33.125Z,100729.39
2017-07-10T07:10:01.459Z,100734.85
2017-07-10T07:12:29.800Z,100718.34
2017-07-10T07:14:58.604Z,100713.45
2017-07-10T07:17:26.958Z,100718.76
2017-07-10T07:19:55.301Z,100723.75
2017-07-10T07:22:23.937Z,100720.53
2017-07-10T07:24:53.037Z,100719.63
2017-07-10T07:27:22.132Z,100721.23
2017-07-10T07:29:51.037Z,100724.64
2017-07-10T07:32:19.442Z,100719.19
2017-07-10T07:34:47.790Z,100720.94
2017-07-10T07:37:16.492Z,100730.93
2017-07-10T07:39:44.819Z,100731.60
2017-07-10T07:42:13.184Z,100728.27
2017-07-10T07:44:41.808Z,100743.55
2017-07-10T07:47:10.163Z,100741.16
2017-07-10T07:49:38.515Z,100744.14
2017-07-10T07:52:07.265Z,100738.16
2017-07-10T07:54:35.624Z,100732.27
2017-07-10T07:57:04.747Z,100727.78
2017-07-10T07:59:33.402Z,100725.98
2017-07-10T08:02:01.745Z,100726.35
2017-07-10T08:04:30.109Z,100725.71
2017-07-10T08:06:59.074Z,100745.11
2017-07-10T08:09:28.163Z,100759.70
2017-07-10T08:11:57.266Z,100752.58
2017-07-10T08:14:27.181Z,100748.42
2017-07-10T08:16:56.282Z,100735.83
2017-07-10T08:19:25.418Z,100733.05
2017-07-10T08:21:54.069Z,100736.49
2017-07-10T08:24:22.415Z,100726.58
2017-07-10T08:26:50.853Z,100723.69
2017-07-10T08:29:19.833Z,100731.22
2017-07-10T08:31:48.193Z,100725.67
2017-07-10T08:34:17.303Z,100723.27
2017-07-10T08:36:46.074Z,100724.53
2017-07-10T08:39:14.430Z,100728.51
2017-07-10T08:41:42.895Z,100718.64
2017-07-10T08:44:11.745Z,100715.82
2017-07-10T08:46:40.085Z,100710.64
2017-07-10T08:49:08.434Z,100710.56
2017-07-10T08:51:37.116Z,100702.35
2017-07-10T08:54:05.478Z,100679.32
2017-07-10T08:56:33.837Z,100680.38
2017-07-10T08:59:02.831Z,100698.55
2017-07-10T09:01:31.172Z,100710.85
2017-07-10T09:03:59.507Z,100697.73
2017-07-10T09:06:28.268Z,100694.59
2017-07-10T09:08:56.918Z,100686.51
2017-07-10T09:11:25.264Z,100688.84
2017-07-10T09:13:54.126Z,100685.92
2017-07-10T09:16:22.461Z,100689.06
2017-07-10T09:18:50.814Z,100681.23
2017-07-10T09:21:19.868Z,100683.58
2017-07-10T09:23:49.861Z,100684.61
2017-07-10T09:26:18.224Z,100689.97
2017-07-10T09:28:47.067Z,100694.13
2017-07-10T09:31:15.437Z,100691.61
2017-07-10T09:33:43.800Z,100693.41
2017-07-10T09:36:12.534Z,100681.48
2017-07-10T09:38:41.288Z,100683.80
2017-07-10T09:41:09.667Z,100681.64
2017-07-10T09:43:38.770Z,100677.36
2017-07-10T09:46:07.122Z,100673.84
2017-07-10T09:48:35.485Z,100670.73
2017-07-10T09:51:04.243Z,100670.28
2017-07-10T09:53:32.583Z,100663.17
2017-07-10T09:56:01.678Z,100657.50
2017-07-10T09:58:31.333Z,100658.91
2017-07-10T10:00:59.662Z,100658.20
2017-07-10T10:03:28.781Z,100652.78
2017-07-10T10:05:57.695Z,100654.14
2017-07-10T10:08:26.044Z,100655.24
2017-07-10T10:10:54.413Z,100654.24
2017-07-10T10:13:23.799Z,100656.61
2017-07-10T10:15:52.155Z,100654.49
2017-07-10T10:18:20.495Z,100650.24
2017-07-10T10:20:49.296Z,100657.52
2017-07-10T10:23:17.620Z,100654.30
2017-07-10T10:25:45.954Z,100661.81
2017-07-10T10:28:14.937Z,100648.85
2017-07-10T10:30:43.297Z,100642.67
2017-07-10T10:33:11.647Z,100635.20
2017-07-10T10:35:40.284Z,100638.64
2017-07-10T10:38:08.624Z,100635.18
2017-07-10T10:40:36.974Z,100630.41
2017-07-10T10:43:05.826Z,100631.73
2017-07-10T10:45:34.175Z,100632.33
2017-07-10T10:48:03.292Z,100634.66
2017-07-10T10:50:32.123Z,100634.28
2017-07-10T10:53:00.490Z,100632.84
2017-07-10T10:55:28.831Z,100631.93
2017-07-10T10:57:57.751Z,100633.64
2017-07-10T11:00:26.069Z,100635.25
2017-07-10T11:02:54.425Z,100646.62
2017-07-10T11:05:23.098Z,100636.95
2017-07-10T11:07:51.451Z,100629.22
2017-07-10T11:10:19.808Z,100619.98
2017-07-10T11:12:48.845Z,100619.84
2017-07-10T11:15:17.182Z,100614.78
2017-07-10T11:17:45.519Z,100612.70
2017-07-10T11:20:14.162Z,100617.25
2017-07-10T11:22:42.492Z,100616.47
2017-07-10T11:25:10.824Z,100613.13
2017-07-10T11:27:39.811Z,100608.39
2017-07-10T11:30:08.926Z,100611.24
2017-07-10T11:32:37.271Z,100609.17
2017-07-10T11:35:06.143Z,100610.11
2017-07-10T11:37:34.481Z,100605.67
2017-07-10T11:40:02.830Z,100609.48
2017-07-10T11:42:32.288Z,100606.93
2017-07-10T11:45:00.629Z,100595.78
2017-07-10T11:47:29.015Z,100597.21
2017-07-10T11:49:57.679Z,100593.44
2017-07-10T11:52:26.030Z,100598.90
2017-07-10T11:54:54.373Z,100595.36
2017-07-10T11:57:23.199Z,100596.08
2017-07-10T11:59:51.552Z,100596.08
2017-07-10T12:02:19.908Z,100596.56
2017-07-10T12:04:48.582Z,100591.47
2017-07-10T12:07:16.935Z,100593.86
2017-07-10T12:09:45.318Z,100590.02
2017-07-10T12:12:14.237Z,100589.13
2017-07-10T12:14:42.598Z,100583.08
2017-07-10T12:17:11.712Z,100586.55
2017-07-10T12:19:40.692Z,100587.75
2017-07-10T12:22:09.027Z,100591.17
2017-07-10T12:24:37.342Z,100591.55
2017-07-10T12:27:06.808Z,100586.37
2017-07-10T12:29:35.189Z,100581.16
2017-07-10T12:32:03.593Z,100582.77
2017-07-10T12:34:32.388Z,100586.61
2017-07-10T12:37:00.749Z,100588.77
2017-07-10T12:39:29.111Z,100580.14
2017-07-10T12:41:58.059Z,100572.17
2017-07-10T12:44:26.404Z,100570.55
2017-07-10T12:46:54.786Z,100577.68
2017-07-10T12:49:23.425Z,100580.02
2017-07-10T12:51:51.775Z,100576.55
2017-07-10T12:54:20.141Z,100574.21
2017-07-10T12:56:48.980Z,100576.67
2017-07-10T12:59:17.326Z,100575.53
2017-07-10T13:01:46.426Z,100574.64
2017-07-10T13:04:15.407Z,100574.88
2017-07-10T13:06:43.764Z,100575.77
2017-07-10T13:09:12.139Z,100575.41
2017-07-10T13:11:40.824Z,100580.38
2017-07-10T13:14:09.161Z,100582.87
2017-07-10T13:16:37.498Z,100576.52
2017-07-10T13:19:06.328Z,100580.09
2017-07-10T13:21:34.692Z,100583.28
2017-07-10T13:24:03.786Z,100580.80
2017-07-10T13:26:33.032Z,100584.91
2017-07-10T13:29:01.390Z,100585.00
2017-07-10T13:31:29.795Z,100577.21
2017-07-10T13:33:58.481Z,100571.16
2017-07-10T13:36:26.858Z,100572.30
2017-07-10T13:38:55.211Z,100567.15
2017-07-10T13:41:24.082Z,100575.83
2017-07-10T13:43:52.441Z,100573.73
2017-07-10T13:46:21.543Z,100575.95
2017-07-10T13:48:51.264Z,100576.67
2017-07-10T13:51:19.647Z,100584.45
2017-07-10T13:53:47.995Z,100582.91
2017-07-10T13:56:16.639Z,100593.27
2017-07-10T13:58:44.986Z,100595.72
2017-07-10T14:01:13.345Z,100604.25
2017-07-10T14:03:42.043Z,100607.20
2017-07-10T14:06:10.386Z,100607.83
2017-07-10T14:08:38.752Z,100600.63
2017-07-10T14:11:07.512Z,100590.63
2017-07-10T14:13:35.849Z,100580.02
2017-07-10T14:16:04.188Z,100594.79
2017-07-10T14:18:32.802Z,100601.49
2017-07-10T14:21:01.261Z,100606.47
2017-07-10T14:23:29.608Z,100607.85
2017-07-10T14:25:58.409Z,100598.81
2017-07-10T14:28:26.781Z,100589.10
2017-07-10T14:30:55.100Z,100579.59
2017-07-10T14:33:23.874Z,100577.50
2017-07-10T14:35:52.221Z,100581.39
2017-07-10T14:38:20.558Z,100587.31
2017-07-10T14:40:49.514Z,100587.94
2017-07-10T14:43:17.866Z,100593.06
2017-07-10T14:45:46.990Z,100591.98
2017-07-10T14:48:15.637Z,100583.42
2017-07-10T14:50:44.743Z,100587.36
2017-07-10T14:53:13.830Z,100587.98
2017-07-10T14:55:46.540Z,100589.99
2017-07-10T14:58:14.902Z,100588.57
2017-07-10T15:00:43.275Z,100589.69
2017-07-10T15:03:12.080Z,100595.59
2017-07-10T15:05:40.422Z,100591.28
2017-07-10T15:08:08.783Z,100588.94
2017-07-10T15:10:37.409Z,100592.41
2017-07-10T15:13:05.741Z,100593.58
2017-07-10T15:15:34.092Z,100596.53
2017-07-10T15:18:03.266Z,100605.95
2017-07-10T15:20:31.609Z,100606.25
2017-07-10T15:22:59.960Z,100607.36
2017-07-10T15:25:28.585Z,100612.28
2017-07-10T15:27:56.922Z,100598.64
2017-07-10T15:30:25.254Z,100592.23
2017-07-10T15:32:54.091Z,100592.78
2017-07-10T15:35:22.421Z,100591.63
2017-07-10T15:37:50.774Z,100595.86
2017-07-10T15:40:19.607Z,100589.23
2017-07-10T15:42:47.970Z,100587.23
2017-07-10T15:45:17.091Z,100586.22
2017-07-10T15:47:45.858Z,100581.27
2017-07-10T15:50:14.207Z,100576.19
2017-07-10T15:52:42.537Z,100579.61
2017-07-10T15:55:11.168Z,100572.00
2017-07-10T15:57:39.526Z,100579.59
2017-07-10T16:00:07.895Z,100579.66
2017-07-10T16:02:37.038Z,100576.16
2017-07-10T16:05:05.387Z,100579.87
2017-07-10T16:07:33.723Z,100580.28
2017-07-10T16:10:02.651Z,100575.73
2017-07-10T16:12:30.986Z,100576.30
2017-07-10T16:14:59.331Z,100563.43
2017-07-10T16:17:28.270Z,100561.52
2017-07-10T16:19:56.612Z,100563.43
2017-07-10T16:22:24.938Z,100560.44
2017-07-10T16:24:53.715Z,100562.41
2017-07-10T16:27:22.101Z,100564.62
2017-07-10T16:29:50.479Z,100563.31
2017-07-10T16:32:19.275Z,100572.06
2017-07-10T16:34:47.612Z,100577.16
2017-07-10T16:37:16.001Z,100578.70
2017-07-10T16:39:44.687Z,100575.70
2017-07-10T16:42:13.805Z,100568.81
2017-07-10T16:44:42.184Z,100574.45
2017-07-10T16:47:11.287Z,100560.97
2017-07-10T16:49:39.634Z,100565.11
2017-07-10T16:52:08.746Z,100573.48
2017-07-10T16:54:37.463Z,100570.30
2017-07-10T16:57:05.811Z,100555.52
2017-07-10T16:59:34.167Z,100555.88
2017-07-10T17:02:03.009Z,100551.98
2017-07-10T17:04:31.342Z,100548.76
2017-07-10T17:06:59.694Z,100545.69
2017-07-10T17:09:28.453Z,100547.19
2017-07-10T17:11:56.786Z,100546.06
2017-07-10T17:14:25.200Z,100551.34
2017-07-10T17:16:54.644Z,100547.25
2017-07-10T17:19:22.986Z,100542.45
2017-07-10T17:21:51.359Z,100537.95
2017-07-10T17:24:20.154Z,100548.20
2017-07-10T17:26:48.502Z,100544.15
2017-07-10T17:29:16.832Z,100549.19
2017-07-10T17:31:45.773Z,100548.76
2017-07-10T17:34:14.146Z,100552.20
2017-07-10T17:36:43.258Z,100558.55
2017-07-10T17:39:12.706Z,100561.62
2017-07-10T17:41:41.049Z,100555.55
2017-07-10T17:44:09.415Z,100560.41
2017-07-10T17:46:38.114Z,100554.50
2017-07-10T17:49:06.457Z,100556.53
2017-07-10T17:51:34.810Z,100556.48
2017-07-10T17:54:03.646Z,100555.97
2017-07-10T17:56:32.014Z,100572.50
2017-07-10T17:59:00.374Z,100569.36
2017-07-10T18:01:29.030Z,100567.62
2017-07-10T18:03:57.387Z,100570.19
2017-07-10T18:06:25.722Z,100572.24
2017-07-10T18:08:54.441Z,100565.34
2017-07-10T18:11:22.809Z,100573.64
2017-07-10T18:13:51.921Z,100573.53
2017-07-10T18:16:21.910Z,100569.14
2017-07-10T18:18:50.264Z,100577.91
2017-07-10T18:21:18.635Z,100580.50
2017-07-10T18:23:47.382Z,100585.36
2017-07-10T18:26:15.762Z,100593.08
2017-07-10T18:28:44.126Z,100598.45
2017-07-10T18:31:12.843Z,100605.11
2017-07-10T18:33:41.220Z,100598.16
2017-07-10T18:36:09.571Z,100594.20
2017-07-10T18:38:38.500Z,100592.28
2017-07-10T18:41:06.842Z,100596.94
2017-07-10T18:43:35.195Z,100594.11
2017-07-10T18:46:03.994Z,100587.42
2017-07-10T18:48:32.354Z,100592.22
2017-07-10T18:51:00.702Z,100587.98
2017-07-10T18:53:29.394Z,100585.86
2017-07-10T18:55:57.739Z,100588.05
2017-07-10T18:58:26.086Z,100593.09
2017-07-10T19:00:55.033Z,100580.63
2017-07-10T19:03:23.372Z,100583.41
2017-07-10T19:05:51.806Z,100575.95
2017-07-10T19:08:20.458Z,100589.51
2017-07-10T19:10:48.844Z,100590.66
2017-07-10T19:13:17.210Z,100589.61
2017-07-10T19:15:45.931Z,100590.09
2017-07-10T19:18:14.303Z,100598.72
2017-07-10T19:20:42.647Z,100598.95
2017-07-10T19:23:11.704Z,100608.75
2017-07-10T19:25:40.083Z,100616.39
2017-07-10T19:28:08.457Z,100610.69
2017-07-10T19:30:37.074Z,100622.25
2017-07-10T19:33:05.435Z,100628.09
2017-07-10T19:35:33.779Z,100634.42
2017-07-10T19:38:02.662Z,100632.39
2017-07-10T19:40:31.003Z,100630.46
2017-07-10T19:42:59.337Z,100635.88
2017-07-10T19:45:28.050Z,100641.75
2017-07-10T19:47:56.391Z,100647.56
2017-07-10T19:50:24.736Z,100648.84
2017-07-10T19:52:53.572Z,100646.98
2017-07-10T19:55:21.923Z,100645.67
2017-07-10T19:57:51.044Z,100649.14
2017-07-10T20:00:19.835Z,100656.22
2017-07-10T20:02:48.183Z,100655.80
2017-07-10T20:05:17.301Z,100664.88
2017-07-10T20:07:46.077Z,100648.89
2017-07-10T20:10:14.413Z,100650.73
2017-07-10T20:12:42.767Z,100649.40
2017-07-10T20:15:11.429Z,100647.25
2017-07-10T20:17:39.762Z,100653.78
2017-07-10T20:20:08.131Z,100670.20
2017-07-10T20:22:36.976Z,100679.43
2017-07-10T20:25:05.342Z,100687.08
2017-07-10T20:27:34.466Z,100696.44
2017-07-10T20:30:03.209Z,100703.78
2017-07-10T20:32:31.546Z,100702.30
2017-07-10T20:34:59.916Z,100698.16
2017-07-10T20:37:28.576Z,100686.20
2017-07-10T20:39:56.958Z,100685.91
2017-07-10T20:42:25.321Z,100680.75
2017-07-10T20:44:53.990Z,100698.55
2017-07-10T20:47:22.334Z,100701.41
2017-07-10T20:49:50.700Z,100697.33
2017-07-10T20:52:19.862Z,100686.73
2017-07-10T20:54:48.225Z,100681.42
2017-07-10T20:57:16.580Z,100689.23
2017-07-10T20:59:45.433Z,100692.47
2017-07-10T21:02:13.771Z,100699.59
2017-07-10T21:04:42.129Z,100712.20
2017-07-10T21:07:10.777Z,100709.70
2017-07-10T21:09:39.117Z,100692.86
2017-07-10T21:12:07.476Z,100681.75
2017-07-10T21:14:36.706Z,100693.38
2017-07-10T21:17:05.064Z,100704.30
2017-07-10T21:19:33.419Z,100713.62
2017-07-10T21:22:02.123Z,100722.13
2017-07-10T21:24:30.482Z,100716.88
2017-07-10T21:26:58.821Z,100713.62
2017-07-10T21:29:28.432Z,100708.34
2017-07-10T21:31:56.811Z,100706.50
2017-07-10T21:34:25.190Z,100703.78
2017-07-10T21:36:54.219Z,100709.50
2017-07-10T21:39:22.552Z,100705.77
2017-07-10T21:41:50.888Z,100698.16
2017-07-10T21:44:19.789Z,100678.30
2017-07-10T21:46:48.105Z,100670.87
2017-07-10T21:49:16.453Z,100671.05
2017-07-10T21:51:45.103Z,100676.66
2017-07-10T21:54:13.447Z,100684.12
2017-07-10T21:56:41.805Z,100685.95
2017-07-10T21:59:10.637Z,100683.63
2017-07-10T22:01:38.987Z,100680.52
2017-07-10T22:04:07.349Z,100688.56
2017-07-10T22:06:36.090Z,100698.85
2017-07-10T22:09:04.427Z,100695.04
2017-07-10T22:11:32.771Z,100693.11
2017-07-10T22:14:01.545Z,100694.67
2017-07-10T22:16:29.907Z,100688.37
2017-07-10T22:18:58.269Z,100690.92
2017-07-10T22:21:26.973Z,100699.64
2017-07-10T22:23:55.334Z,100693.38
2017-07-10T22:26:24.443Z,100683.14
2017-07-10T22:28:53.140Z,100680.48
2017-07-10T22:31:21.504Z,100677.55
2017-07-10T22:33:49.847Z,100673.80
2017-07-10T22:36:18.489Z,100679.12
2017-07-10T22:38:46.838Z,100685.02
2017-07-10T22:41:16.000Z,100695.69
2017-07-10T22:43:44.751Z,100696.66
2017-07-10T22:46:13.093Z,100687.30
2017-07-10T22:48:41.478Z,100689.72
2017-07-10T22:51:10.178Z,100696.11
2017-07-10T22:53:38.522Z,100698.86
2017-07-10T22:56:06.852Z,100692.70
2017-07-10T22:58:35.530Z,100689.37
2017-07-10T23:01:03.871Z,100680.28
2017-07-10T23:03:32.263Z,100678.02
2017-07-10T23:06:01.708Z,100672.64
2017-07-10T23:08:30.122Z,100682.95
2017-07-10T23:10:58.474Z,100680.99
2017-07-10T23:13:27.335Z,100681.14
2017-07-10T23:15:55.731Z,100684.50
2017-07-10T23:18:24.074Z,100679.06
2017-07-10T23:20:52.708Z,100681.02
2017-07-10T23:23:21.071Z,100687.27
2017-07-10T23:25:49.447Z,100685.22
2017-07-10T23:28:18.489Z,100685.25
2017-07-10T23:30:46.831Z,100679.08
2017-07-10T23:33:15.189Z,100677.27
2017-07-10T23:35:44.080Z,100680.97
2017-07-10T23:38:12.418Z,100688.65
2017-07-10T23:40:40.748Z,100689.17
2017-07-10T23:43:09.525Z,100691.36
2017-07-10T23:45:37.865Z,100687.05
2017-07-10T23:48:06.244Z,100679.81
2017-07-10T23:50:35.386Z,100681.02
2017-07-10T23:53:03.734Z,100680.78
2017-07-10T23:55:32.085Z,100661.59
2017-07-10T23:58:00.733Z,100664.50
